sensor_id;sensor_type;location;lat;lon;timestamp;temperature;humidity
48686;DHT22;34485;51.536;3.816;2022-12-07T00:00:42;4.80;99.90
48686;DHT22;34485;51.536;3.816;2022-12-07T00:03:08;4.70;99.90
48686;DHT22;34485;51.536;3.816;2022-12-07T00:05:33;4.60;99.90
48686;DHT22;34485;51.536;3.816;2022-12-07T00:07:59;4.60;99.90
48686;DHT22;34485;51.536;3.816;2022-12-07T00:10:25;4.60;99.90
48686;DHT22;34485;51.536;3.816;2022-12-07T00:12:50;4.50;99.90
48686;DHT22;34485;51.536;3.816;2022-12-07T00:15:16;4.40;99.90
48686;DHT22;34485;51.536;3.816;2022-12-07T00:17:41;4.40;99.90
48686;DHT22;34485;51.536;3.816;2022-12-07T00:20:07;4.40;99.90
48686;DHT22;34485;51.536;3.816;2022-12-07T00:22:33;4.40;99.90
48686;DHT22;34485;51.536;3.816;2022-12-07T00:24:58;4.40;99.90
48686;DHT22;34485;51.536;3.816;2022-12-07T00:27:24;4.40;99.90
48686;DHT22;34485;51.536;3.816;2022-12-07T00:29:49;4.40;99.90
48686;DHT22;34485;51.536;3.816;2022-12-07T00:32:15;4.50;99.90
48686;DHT22;34485;51.536;3.816;2022-12-07T00:34:40;4.50;99.90
48686;DHT22;34485;51.536;3.816;2022-12-07T00:37:06;4.50;99.90
48686;DHT22;34485;51.536;3.816;2022-12-07T00:39:32;4.60;99.90
48686;DHT22;34485;51.536;3.816;2022-12-07T00:41:57;4.70;99.90
48686;DHT22;34485;51.536;3.816;2022-12-07T00:44:23;4.70;99.90
48686;DHT22;34485;51.536;3.816;2022-12-07T00:46:48;4.70;99.90
48686;DHT22;34485;51.536;3.816;2022-12-07T00:49:14;4.60;99.90
48686;DHT22;34485;51.536;3.816;2022-12-07T00:51:39;4.60;99.90
48686;DHT22;34485;51.536;3.816;2022-12-07T00:54:05;4.60;99.90
48686;DHT22;34485;51.536;3.816;2022-12-07T00:56:31;4.50;99.90
48686;DHT22;34485;51.536;3.816;2022-12-07T00:59:01;4.50;99.90
48686;DHT22;34485;51.536;3.816;2022-12-07T01:01:30;4.50;99.90
48686;DHT22;34485;51.536;3.816;2022-12-07T01:03:56;4.60;99.90
48686;DHT22;34485;51.536;3.816;2022-12-07T01:06:23;4.70;99.90
48686;DHT22;34485;51.536;3.816;2022-12-07T01:08:49;4.90;99.90
48686;DHT22;34485;51.536;3.816;2022-12-07T01:11:19;5.00;99.90
48686;DHT22;34485;51.536;3.816;2022-12-07T01:13:45;5.00;99.90
48686;DHT22;34485;51.536;3.816;2022-12-07T01:16:15;5.00;99.90
48686;DHT22;34485;51.536;3.816;2022-12-07T01:18:41;4.90;99.90
48686;DHT22;34485;51.536;3.816;2022-12-07T01:21:14;4.80;99.90
48686;DHT22;34485;51.536;3.816;2022-12-07T01:23:40;4.70;99.90
48686;DHT22;34485;51.536;3.816;2022-12-07T01:26:10;4.60;99.90
48686;DHT22;34485;51.536;3.816;2022-12-07T01:28:36;4.60;99.90
48686;DHT22;34485;51.536;3.816;2022-12-07T01:31:05;4.70;99.90
48686;DHT22;34485;51.536;3.816;2022-12-07T01:33:33;4.90;99.90
48686;DHT22;34485;51.536;3.816;2022-12-07T01:38:30;5.30;99.90
48686;DHT22;34485;51.536;3.816;2022-12-07T01:40:56;5.40;99.90
48686;DHT22;34485;51.536;3.816;2022-12-07T01:43:24;5.40;99.90
48686;DHT22;34485;51.536;3.816;2022-12-07T01:45:50;5.50;99.90
48686;DHT22;34485;51.536;3.816;2022-12-07T01:48:19;5.50;99.90
48686;DHT22;34485;51.536;3.816;2022-12-07T01:50:48;5.30;99.90
48686;DHT22;34485;51.536;3.816;2022-12-07T01:53:16;5.20;99.90
48686;DHT22;34485;51.536;3.816;2022-12-07T01:55:46;5.10;99.90
48686;DHT22;34485;51.536;3.816;2022-12-07T01:58:13;4.90;99.90
48686;DHT22;34485;51.536;3.816;2022-12-07T02:00:41;4.80;99.90
48686;DHT22;34485;51.536;3.816;2022-12-07T02:03:31;4.70;99.90
48686;DHT22;34485;51.536;3.816;2022-12-07T02:05:59;4.50;99.90
48686;DHT22;34485;51.536;3.816;2022-12-07T02:08:25;4.40;99.90
48686;DHT22;34485;51.536;3.816;2022-12-07T02:10:51;4.30;99.90
48686;DHT22;34485;51.536;3.816;2022-12-07T02:13:22;4.30;99.90
48686;DHT22;34485;51.536;3.816;2022-12-07T02:25:08;4.40;99.90
48686;DHT22;34485;51.536;3.816;2022-12-07T02:27:57;4.40;99.90
48686;DHT22;34485;51.536;3.816;2022-12-07T02:30:29;4.20;99.90
48686;DHT22;34485;51.536;3.816;2022-12-07T02:33:00;4.10;99.90
48686;DHT22;34485;51.536;3.816;2022-12-07T02:35:41;4.00;99.90
48686;DHT22;34485;51.536;3.816;2022-12-07T02:39:00;4.00;99.90
48686;DHT22;34485;51.536;3.816;2022-12-07T02:48:55;4.60;99.90
48686;DHT22;34485;51.536;3.816;2022-12-07T02:51:21;4.60;99.90
48686;DHT22;34485;51.536;3.816;2022-12-07T02:53:47;4.70;99.90
48686;DHT22;34485;51.536;3.816;2022-12-07T03:02:50;4.70;99.90
48686;DHT22;34485;51.536;3.816;2022-12-07T03:16:20;4.30;99.90
48686;DHT22;34485;51.536;3.816;2022-12-07T03:18:53;4.20;99.90
48686;DHT22;34485;51.536;3.816;2022-12-07T03:21:25;4.10;99.90
48686;DHT22;34485;51.536;3.816;2022-12-07T03:23:56;4.00;99.90
48686;DHT22;34485;51.536;3.816;2022-12-07T03:26:28;4.10;99.90
48686;DHT22;34485;51.536;3.816;2022-12-07T03:29:01;4.00;99.90
48686;DHT22;34485;51.536;3.816;2022-12-07T03:31:40;4.10;99.90
48686;DHT22;34485;51.536;3.816;2022-12-07T03:34:11;4.10;99.90
48686;DHT22;34485;51.536;3.816;2022-12-07T03:36:47;4.10;99.90
48686;DHT22;34485;51.536;3.816;2022-12-07T03:39:41;4.20;99.90
48686;DHT22;34485;51.536;3.816;2022-12-07T03:42:12;4.20;99.90
48686;DHT22;34485;51.536;3.816;2022-12-07T03:44:38;4.10;99.90
48686;DHT22;34485;51.536;3.816;2022-12-07T03:49:55;4.00;99.90
48686;DHT22;34485;51.536;3.816;2022-12-07T03:52:40;4.00;99.90
48686;DHT22;34485;51.536;3.816;2022-12-07T03:58:15;4.30;99.90
48686;DHT22;34485;51.536;3.816;2022-12-07T04:00:42;4.50;99.90
48686;DHT22;34485;51.536;3.816;2022-12-07T04:03:08;4.60;99.90
48686;DHT22;34485;51.536;3.816;2022-12-07T04:05:34;4.60;99.90
48686;DHT22;34485;51.536;3.816;2022-12-07T04:08:00;4.70;99.90
48686;DHT22;34485;51.536;3.816;2022-12-07T04:10:26;4.70;99.90
48686;DHT22;34485;51.536;3.816;2022-12-07T04:12:51;4.70;99.90
48686;DHT22;34485;51.536;3.816;2022-12-07T04:15:17;4.80;99.90
48686;DHT22;34485;51.536;3.816;2022-12-07T04:17:43;4.80;99.90
48686;DHT22;34485;51.536;3.816;2022-12-07T04:20:09;4.80;99.90
48686;DHT22;34485;51.536;3.816;2022-12-07T04:22:34;4.70;99.90
48686;DHT22;34485;51.536;3.816;2022-12-07T04:25:00;4.70;99.90
48686;DHT22;34485;51.536;3.816;2022-12-07T04:27:26;4.60;99.90
48686;DHT22;34485;51.536;3.816;2022-12-07T04:29:51;4.50;99.90
48686;DHT22;34485;51.536;3.816;2022-12-07T04:32:17;4.40;99.90
48686;DHT22;34485;51.536;3.816;2022-12-07T04:34:42;4.30;99.90
48686;DHT22;34485;51.536;3.816;2022-12-07T04:37:08;4.20;99.90
48686;DHT22;34485;51.536;3.816;2022-12-07T04:39:33;4.20;99.90
48686;DHT22;34485;51.536;3.816;2022-12-07T04:42:00;4.20;99.90
48686;DHT22;34485;51.536;3.816;2022-12-07T04:44:27;4.10;99.90
48686;DHT22;34485;51.536;3.816;2022-12-07T04:46:54;4.00;99.90
48686;DHT22;34485;51.536;3.816;2022-12-07T04:49:20;3.90;99.90
48686;DHT22;34485;51.536;3.816;2022-12-07T04:51:47;3.90;99.90
48686;DHT22;34485;51.536;3.816;2022-12-07T04:54:14;3.90;99.90
48686;DHT22;34485;51.536;3.816;2022-12-07T04:56:40;3.80;99.90
48686;DHT22;34485;51.536;3.816;2022-12-07T04:59:06;3.70;99.90
48686;DHT22;34485;51.536;3.816;2022-12-07T05:01:32;3.80;99.90
48686;DHT22;34485;51.536;3.816;2022-12-07T05:03:58;3.70;99.90
48686;DHT22;34485;51.536;3.816;2022-12-07T05:06:24;3.70;99.90
48686;DHT22;34485;51.536;3.816;2022-12-07T05:08:50;3.70;99.90
48686;DHT22;34485;51.536;3.816;2022-12-07T05:11:16;3.70;99.90
48686;DHT22;34485;51.536;3.816;2022-12-07T05:14:01;3.60;99.90
48686;DHT22;34485;51.536;3.816;2022-12-07T05:16:26;3.60;99.90
48686;DHT22;34485;51.536;3.816;2022-12-07T05:18:52;3.70;99.90
48686;DHT22;34485;51.536;3.816;2022-12-07T05:21:18;3.70;99.90
48686;DHT22;34485;51.536;3.816;2022-12-07T05:23:43;3.70;99.90
48686;DHT22;34485;51.536;3.816;2022-12-07T05:26:09;3.90;99.90
48686;DHT22;34485;51.536;3.816;2022-12-07T05:28:35;4.10;99.90
48686;DHT22;34485;51.536;3.816;2022-12-07T05:31:00;4.20;99.90
48686;DHT22;34485;51.536;3.816;2022-12-07T05:33:26;4.30;99.90
48686;DHT22;34485;51.536;3.816;2022-12-07T05:35:52;4.30;99.90
48686;DHT22;34485;51.536;3.816;2022-12-07T05:38:17;4.20;99.90
48686;DHT22;34485;51.536;3.816;2022-12-07T05:40:43;4.10;99.90
48686;DHT22;34485;51.536;3.816;2022-12-07T05:43:08;4.10;99.90
48686;DHT22;34485;51.536;3.816;2022-12-07T05:45:34;4.00;99.90
48686;DHT22;34485;51.536;3.816;2022-12-07T05:48:00;3.90;99.90
48686;DHT22;34485;51.536;3.816;2022-12-07T05:50:25;3.90;99.90
48686;DHT22;34485;51.536;3.816;2022-12-07T05:52:51;3.70;99.90
48686;DHT22;34485;51.536;3.816;2022-12-07T05:55:16;3.70;99.90
48686;DHT22;34485;51.536;3.816;2022-12-07T05:57:42;3.40;99.90
48686;DHT22;34485;51.536;3.816;2022-12-07T06:00:27;3.40;99.90
48686;DHT22;34485;51.536;3.816;2022-12-07T06:02:53;3.40;99.90
48686;DHT22;34485;51.536;3.816;2022-12-07T06:05:18;3.40;99.90
48686;DHT22;34485;51.536;3.816;2022-12-07T06:07:44;3.50;99.90
48686;DHT22;34485;51.536;3.816;2022-12-07T06:10:10;3.50;99.90
48686;DHT22;34485;51.536;3.816;2022-12-07T06:12:35;3.60;99.90
48686;DHT22;34485;51.536;3.816;2022-12-07T06:15:03;3.70;99.90
48686;DHT22;34485;51.536;3.816;2022-12-07T06:17:29;3.80;99.90
48686;DHT22;34485;51.536;3.816;2022-12-07T06:19:55;3.80;99.90
48686;DHT22;34485;51.536;3.816;2022-12-07T06:22:20;3.70;99.90
48686;DHT22;34485;51.536;3.816;2022-12-07T06:24:46;3.70;99.90
48686;DHT22;34485;51.536;3.816;2022-12-07T06:27:12;3.70;99.90
48686;DHT22;34485;51.536;3.816;2022-12-07T06:29:37;3.60;99.90
48686;DHT22;34485;51.536;3.816;2022-12-07T06:32:03;3.70;99.90
48686;DHT22;34485;51.536;3.816;2022-12-07T06:34:30;3.70;99.90
48686;DHT22;34485;51.536;3.816;2022-12-07T06:36:56;3.80;99.90
48686;DHT22;34485;51.536;3.816;2022-12-07T06:39:26;4.00;99.90
48686;DHT22;34485;51.536;3.816;2022-12-07T06:44:19;4.80;99.90
48686;DHT22;34485;51.536;3.816;2022-12-07T06:46:46;4.40;99.90
48686;DHT22;34485;51.536;3.816;2022-12-07T06:49:12;4.50;99.90
48686;DHT22;34485;51.536;3.816;2022-12-07T06:51:37;4.60;99.90
48686;DHT22;34485;51.536;3.816;2022-12-07T06:54:07;4.60;99.90
48686;DHT22;34485;51.536;3.816;2022-12-07T06:56:33;4.60;99.90
48686;DHT22;34485;51.536;3.816;2022-12-07T06:58:58;4.70;99.90
48686;DHT22;34485;51.536;3.816;2022-12-07T07:01:24;4.60;99.90
48686;DHT22;34485;51.536;3.816;2022-12-07T07:03:49;4.70;99.90
48686;DHT22;34485;51.536;3.816;2022-12-07T07:06:15;4.80;99.90
48686;DHT22;34485;51.536;3.816;2022-12-07T07:08:41;4.80;99.90
48686;DHT22;34485;51.536;3.816;2022-12-07T07:11:08;4.80;99.90
48686;DHT22;34485;51.536;3.816;2022-12-07T07:13:33;4.70;99.90
48686;DHT22;34485;51.536;3.816;2022-12-07T07:20:52;4.70;99.90
48686;DHT22;34485;51.536;3.816;2022-12-07T07:23:18;4.40;99.90
48686;DHT22;34485;51.536;3.816;2022-12-07T07:25:45;4.40;99.90
48686;DHT22;34485;51.536;3.816;2022-12-07T07:28:11;4.30;99.90
48686;DHT22;34485;51.536;3.816;2022-12-07T07:30:36;4.30;99.90
48686;DHT22;34485;51.536;3.816;2022-12-07T07:33:03;4.30;99.90
48686;DHT22;34485;51.536;3.816;2022-12-07T07:35:30;4.30;99.90
48686;DHT22;34485;51.536;3.816;2022-12-07T07:37:56;4.30;99.90
48686;DHT22;34485;51.536;3.816;2022-12-07T07:40:22;4.30;99.90
48686;DHT22;34485;51.536;3.816;2022-12-07T07:42:52;4.20;99.90
48686;DHT22;34485;51.536;3.816;2022-12-07T07:45:19;4.10;99.90
48686;DHT22;34485;51.536;3.816;2022-12-07T07:47:45;4.10;99.90
48686;DHT22;34485;51.536;3.816;2022-12-07T07:50:10;4.00;99.90
48686;DHT22;34485;51.536;3.816;2022-12-07T07:52:36;4.10;99.90
48686;DHT22;34485;51.536;3.816;2022-12-07T07:55:02;4.20;99.90
48686;DHT22;34485;51.536;3.816;2022-12-07T07:57:28;4.20;99.90
48686;DHT22;34485;51.536;3.816;2022-12-07T07:59:53;4.30;99.90
48686;DHT22;34485;51.536;3.816;2022-12-07T08:02:20;4.50;99.90
48686;DHT22;34485;51.536;3.816;2022-12-07T08:04:46;4.50;99.90
48686;DHT22;34485;51.536;3.816;2022-12-07T08:07:13;4.70;99.90
48686;DHT22;34485;51.536;3.816;2022-12-07T08:09:39;4.80;99.90
48686;DHT22;34485;51.536;3.816;2022-12-07T08:12:05;5.00;99.90
48686;DHT22;34485;51.536;3.816;2022-12-07T08:14:31;5.10;99.90
48686;DHT22;34485;51.536;3.816;2022-12-07T08:16:57;5.20;99.90
48686;DHT22;34485;51.536;3.816;2022-12-07T08:19:23;5.30;99.90
48686;DHT22;34485;51.536;3.816;2022-12-07T08:21:48;5.40;99.90
48686;DHT22;34485;51.536;3.816;2022-12-07T08:24:14;5.40;99.90
48686;DHT22;34485;51.536;3.816;2022-12-07T08:26:40;5.30;99.90
48686;DHT22;34485;51.536;3.816;2022-12-07T08:29:05;5.30;99.90
48686;DHT22;34485;51.536;3.816;2022-12-07T08:31:31;5.30;99.90
48686;DHT22;34485;51.536;3.816;2022-12-07T08:33:57;5.30;99.90
48686;DHT22;34485;51.536;3.816;2022-12-07T08:36:22;5.30;99.90
48686;DHT22;34485;51.536;3.816;2022-12-07T08:38:49;5.40;99.90
48686;DHT22;34485;51.536;3.816;2022-12-07T08:41:15;5.40;99.90
48686;DHT22;34485;51.536;3.816;2022-12-07T08:43:41;5.50;99.90
48686;DHT22;34485;51.536;3.816;2022-12-07T08:46:13;5.60;99.90
48686;DHT22;34485;51.536;3.816;2022-12-07T08:48:49;5.70;99.90
48686;DHT22;34485;51.536;3.816;2022-12-07T08:51:15;5.70;99.90
48686;DHT22;34485;51.536;3.816;2022-12-07T08:53:41;5.80;99.90
48686;DHT22;34485;51.536;3.816;2022-12-07T08:56:08;5.90;99.90
48686;DHT22;34485;51.536;3.816;2022-12-07T08:58:35;6.10;99.90
48686;DHT22;34485;51.536;3.816;2022-12-07T09:01:01;6.20;99.90
48686;DHT22;34485;51.536;3.816;2022-12-07T09:03:26;6.30;99.90
48686;DHT22;34485;51.536;3.816;2022-12-07T09:05:53;6.30;99.90
48686;DHT22;34485;51.536;3.816;2022-12-07T09:08:20;6.50;99.90
48686;DHT22;34485;51.536;3.816;2022-12-07T09:10:46;6.60;99.90
48686;DHT22;34485;51.536;3.816;2022-12-07T09:13:11;6.70;99.90
48686;DHT22;34485;51.536;3.816;2022-12-07T09:15:37;6.60;99.90
48686;DHT22;34485;51.536;3.816;2022-12-07T09:18:02;6.50;99.90
48686;DHT22;34485;51.536;3.816;2022-12-07T09:20:28;6.50;99.90
48686;DHT22;34485;51.536;3.816;2022-12-07T09:22:54;6.30;99.90
48686;DHT22;34485;51.536;3.816;2022-12-07T09:25:20;6.20;99.90
48686;DHT22;34485;51.536;3.816;2022-12-07T09:27:46;6.10;99.90
48686;DHT22;34485;51.536;3.816;2022-12-07T09:30:12;6.10;99.90
48686;DHT22;34485;51.536;3.816;2022-12-07T09:32:38;6.00;99.90
48686;DHT22;34485;51.536;3.816;2022-12-07T09:35:04;5.90;99.90
48686;DHT22;34485;51.536;3.816;2022-12-07T09:37:30;5.90;99.90
48686;DHT22;34485;51.536;3.816;2022-12-07T09:40:00;5.80;99.90
48686;DHT22;34485;51.536;3.816;2022-12-07T09:42:29;5.80;99.90
48686;DHT22;34485;51.536;3.816;2022-12-07T09:44:58;5.70;99.90
48686;DHT22;34485;51.536;3.816;2022-12-07T09:47:25;5.80;99.90
48686;DHT22;34485;51.536;3.816;2022-12-07T09:49:51;5.90;99.90
48686;DHT22;34485;51.536;3.816;2022-12-07T09:52:26;6.20;99.90
48686;DHT22;34485;51.536;3.816;2022-12-07T09:54:52;6.60;99.90
48686;DHT22;34485;51.536;3.816;2022-12-07T09:57:22;6.70;99.90
48686;DHT22;34485;51.536;3.816;2022-12-07T09:59:50;6.70;99.90
48686;DHT22;34485;51.536;3.816;2022-12-07T10:02:40;6.70;99.90
48686;DHT22;34485;51.536;3.816;2022-12-07T10:05:22;6.70;99.90
48686;DHT22;34485;51.536;3.816;2022-12-07T10:07:48;6.60;99.90
48686;DHT22;34485;51.536;3.816;2022-12-07T10:10:29;6.70;99.90
48686;DHT22;34485;51.536;3.816;2022-12-07T10:15:57;7.30;99.90
48686;DHT22;34485;51.536;3.816;2022-12-07T10:18:40;7.70;99.90
48686;DHT22;34485;51.536;3.816;2022-12-07T10:21:36;7.60;99.90
48686;DHT22;34485;51.536;3.816;2022-12-07T10:26:50;7.70;99.90
48686;DHT22;34485;51.536;3.816;2022-12-07T10:29:17;7.70;99.90
48686;DHT22;34485;51.536;3.816;2022-12-07T10:34:30;8.30;99.90
48686;DHT22;34485;51.536;3.816;2022-12-07T10:37:22;8.30;99.90
48686;DHT22;34485;51.536;3.816;2022-12-07T10:39:55;8.10;99.90
48686;DHT22;34485;51.536;3.816;2022-12-07T10:42:31;7.90;99.90
48686;DHT22;34485;51.536;3.816;2022-12-07T10:45:16;7.80;99.90
48686;DHT22;34485;51.536;3.816;2022-12-07T10:52:46;7.70;99.90
48686;DHT22;34485;51.536;3.816;2022-12-07T11:05:54;7.70;99.90
48686;DHT22;34485;51.536;3.816;2022-12-07T11:16:56;7.90;99.90
48686;DHT22;34485;51.536;3.816;2022-12-07T11:19:47;8.00;99.90
48686;DHT22;34485;51.536;3.816;2022-12-07T11:30:45;8.30;99.90
48686;DHT22;34485;51.536;3.816;2022-12-07T11:33:21;8.20;99.90
48686;DHT22;34485;51.536;3.816;2022-12-07T11:36:17;8.10;99.90
48686;DHT22;34485;51.536;3.816;2022-12-07T11:38:53;7.70;99.90
48686;DHT22;34485;51.536;3.816;2022-12-07T11:41:24;7.20;99.90
48686;DHT22;34485;51.536;3.816;2022-12-07T11:43:59;6.90;99.90
48686;DHT22;34485;51.536;3.816;2022-12-07T11:46:47;6.80;99.90
48686;DHT22;34485;51.536;3.816;2022-12-07T11:49:24;6.60;99.90
48686;DHT22;34485;51.536;3.816;2022-12-07T11:51:53;6.50;99.90
48686;DHT22;34485;51.536;3.816;2022-12-07T11:54:25;6.40;99.90
48686;DHT22;34485;51.536;3.816;2022-12-07T11:56:53;6.40;99.90
48686;DHT22;34485;51.536;3.816;2022-12-07T11:59:28;6.50;99.90
48686;DHT22;34485;51.536;3.816;2022-12-07T12:01:56;6.70;99.90
48686;DHT22;34485;51.536;3.816;2022-12-07T12:17:37;7.10;99.90
48686;DHT22;34485;51.536;3.816;2022-12-07T12:23:07;7.00;99.90
48686;DHT22;34485;51.536;3.816;2022-12-07T12:25:39;7.10;99.90
48686;DHT22;34485;51.536;3.816;2022-12-07T12:49:14;6.40;99.90
48686;DHT22;34485;51.536;3.816;2022-12-07T12:51:44;6.20;99.90
48686;DHT22;34485;51.536;3.816;2022-12-07T12:59:30;6.20;99.90
48686;DHT22;34485;51.536;3.816;2022-12-07T13:02:07;6.10;99.90
48686;DHT22;34485;51.536;3.816;2022-12-07T13:07:10;6.60;99.90
48686;DHT22;34485;51.536;3.816;2022-12-07T13:09:36;6.70;99.90
48686;DHT22;34485;51.536;3.816;2022-12-07T13:29:50;7.10;99.90
48686;DHT22;34485;51.536;3.816;2022-12-07T13:32:29;7.10;99.90
48686;DHT22;34485;51.536;3.816;2022-12-07T13:34:55;7.10;99.90
48686;DHT22;34485;51.536;3.816;2022-12-07T13:37:25;7.00;99.90
48686;DHT22;34485;51.536;3.816;2022-12-07T13:42:31;7.10;99.90
48686;DHT22;34485;51.536;3.816;2022-12-07T13:44:59;7.10;99.90
48686;DHT22;34485;51.536;3.816;2022-12-07T13:47:52;7.20;99.90
48686;DHT22;34485;51.536;3.816;2022-12-07T13:50:47;7.20;99.90
48686;DHT22;34485;51.536;3.816;2022-12-07T13:53:17;7.20;99.90
48686;DHT22;34485;51.536;3.816;2022-12-07T13:55:46;7.30;99.90
48686;DHT22;34485;51.536;3.816;2022-12-07T13:58:12;7.30;99.90
48686;DHT22;34485;51.536;3.816;2022-12-07T14:00:40;7.20;99.90
48686;DHT22;34485;51.536;3.816;2022-12-07T14:05:37;7.00;99.90
48686;DHT22;34485;51.536;3.816;2022-12-07T14:08:04;7.00;99.90
48686;DHT22;34485;51.536;3.816;2022-12-07T14:15:28;6.70;99.90
48686;DHT22;34485;51.536;3.816;2022-12-07T14:17:55;6.70;99.90
48686;DHT22;34485;51.536;3.816;2022-12-07T14:20:40;6.50;99.90
48686;DHT22;34485;51.536;3.816;2022-12-07T14:23:23;6.50;99.90
48686;DHT22;34485;51.536;3.816;2022-12-07T14:25:51;6.40;99.90
48686;DHT22;34485;51.536;3.816;2022-12-07T14:28:34;6.40;99.90
48686;DHT22;34485;51.536;3.816;2022-12-07T14:31:01;6.20;99.90
48686;DHT22;34485;51.536;3.816;2022-12-07T14:33:27;6.10;99.90
48686;DHT22;34485;51.536;3.816;2022-12-07T14:35:53;5.90;99.90
48686;DHT22;34485;51.536;3.816;2022-12-07T14:38:23;5.80;99.90
48686;DHT22;34485;51.536;3.816;2022-12-07T14:40:53;5.70;99.90
48686;DHT22;34485;51.536;3.816;2022-12-07T14:43:20;5.70;99.90
48686;DHT22;34485;51.536;3.816;2022-12-07T14:45:46;5.60;99.90
48686;DHT22;34485;51.536;3.816;2022-12-07T14:48:13;5.60;99.90
48686;DHT22;34485;51.536;3.816;2022-12-07T14:50:45;5.60;99.90
48686;DHT22;34485;51.536;3.816;2022-12-07T14:53:16;5.60;99.90
48686;DHT22;34485;51.536;3.816;2022-12-07T14:55:42;5.60;99.90
48686;DHT22;34485;51.536;3.816;2022-12-07T14:58:14;5.60;99.90
48686;DHT22;34485;51.536;3.816;2022-12-07T15:00:40;5.50;99.90
48686;DHT22;34485;51.536;3.816;2022-12-07T15:03:05;5.50;99.90
48686;DHT22;34485;51.536;3.816;2022-12-07T15:05:31;5.40;99.90
48686;DHT22;34485;51.536;3.816;2022-12-07T15:07:58;5.30;99.90
48686;DHT22;34485;51.536;3.816;2022-12-07T15:10:26;5.30;99.90
48686;DHT22;34485;51.536;3.816;2022-12-07T15:13:00;5.30;99.90
48686;DHT22;34485;51.536;3.816;2022-12-07T15:15:46;5.40;99.90
48686;DHT22;34485;51.536;3.816;2022-12-07T15:18:11;5.40;99.90
48686;DHT22;34485;51.536;3.816;2022-12-07T15:20:38;5.40;99.90
48686;DHT22;34485;51.536;3.816;2022-12-07T15:23:04;5.50;99.90
48686;DHT22;34485;51.536;3.816;2022-12-07T15:25:30;5.50;99.90
48686;DHT22;34485;51.536;3.816;2022-12-07T15:27:56;5.50;99.90
48686;DHT22;34485;51.536;3.816;2022-12-07T15:30:21;5.50;99.90
48686;DHT22;34485;51.536;3.816;2022-12-07T15:32:53;5.50;99.90
48686;DHT22;34485;51.536;3.816;2022-12-07T15:35:20;5.50;99.90
48686;DHT22;34485;51.536;3.816;2022-12-07T15:37:46;5.50;99.90
48686;DHT22;34485;51.536;3.816;2022-12-07T15:42:38;5.60;99.90
48686;DHT22;34485;51.536;3.816;2022-12-07T15:45:06;5.60;99.90
48686;DHT22;34485;51.536;3.816;2022-12-07T15:47:35;5.50;99.90
48686;DHT22;34485;51.536;3.816;2022-12-07T15:50:03;5.50;99.90
48686;DHT22;34485;51.536;3.816;2022-12-07T15:52:29;5.40;99.90
48686;DHT22;34485;51.536;3.816;2022-12-07T15:54:55;5.40;99.90
48686;DHT22;34485;51.536;3.816;2022-12-07T15:57:21;5.40;99.90
48686;DHT22;34485;51.536;3.816;2022-12-07T15:59:46;5.30;99.90
48686;DHT22;34485;51.536;3.816;2022-12-07T16:02:12;5.20;99.90
48686;DHT22;34485;51.536;3.816;2022-12-07T16:04:38;5.20;99.90
48686;DHT22;34485;51.536;3.816;2022-12-07T16:07:04;5.10;99.90
48686;DHT22;34485;51.536;3.816;2022-12-07T16:09:29;5.10;99.90
48686;DHT22;34485;51.536;3.816;2022-12-07T16:11:55;5.10;99.90
48686;DHT22;34485;51.536;3.816;2022-12-07T16:14:21;5.10;99.90
48686;DHT22;34485;51.536;3.816;2022-12-07T16:16:47;5.10;99.90
48686;DHT22;34485;51.536;3.816;2022-12-07T16:19:13;5.10;99.90
48686;DHT22;34485;51.536;3.816;2022-12-07T16:21:39;5.00;99.90
48686;DHT22;34485;51.536;3.816;2022-12-07T16:24:05;5.00;99.90
48686;DHT22;34485;51.536;3.816;2022-12-07T16:26:31;5.00;99.90
48686;DHT22;34485;51.536;3.816;2022-12-07T16:28:57;5.10;99.90
48686;DHT22;34485;51.536;3.816;2022-12-07T16:31:24;5.10;99.90
48686;DHT22;34485;51.536;3.816;2022-12-07T16:33:53;5.10;99.90
48686;DHT22;34485;51.536;3.816;2022-12-07T16:36:19;5.20;99.90
48686;DHT22;34485;51.536;3.816;2022-12-07T16:38:47;5.20;99.90
48686;DHT22;34485;51.536;3.816;2022-12-07T16:41:13;5.20;99.90
48686;DHT22;34485;51.536;3.816;2022-12-07T16:43:39;5.30;99.90
48686;DHT22;34485;51.536;3.816;2022-12-07T16:46:05;5.30;99.90
48686;DHT22;34485;51.536;3.816;2022-12-07T16:48:31;5.30;99.90
48686;DHT22;34485;51.536;3.816;2022-12-07T16:51:04;5.30;99.90
48686;DHT22;34485;51.536;3.816;2022-12-07T16:53:29;5.30;99.90
48686;DHT22;34485;51.536;3.816;2022-12-07T16:55:55;5.30;99.90
48686;DHT22;34485;51.536;3.816;2022-12-07T16:58:20;5.20;99.90
48686;DHT22;34485;51.536;3.816;2022-12-07T17:00:46;5.20;99.90
48686;DHT22;34485;51.536;3.816;2022-12-07T17:03:12;5.20;99.90
48686;DHT22;34485;51.536;3.816;2022-12-07T17:39:52;5.60;99.90
48686;DHT22;34485;51.536;3.816;2022-12-07T17:42:23;5.40;99.90
48686;DHT22;34485;51.536;3.816;2022-12-07T17:45:03;5.30;99.90
48686;DHT22;34485;51.536;3.816;2022-12-07T17:47:28;5.30;99.90
48686;DHT22;34485;51.536;3.816;2022-12-07T17:49:54;5.30;99.90
48686;DHT22;34485;51.536;3.816;2022-12-07T17:52:20;5.20;99.90
48686;DHT22;34485;51.536;3.816;2022-12-07T17:55:04;5.20;99.90
48686;DHT22;34485;51.536;3.816;2022-12-07T18:19:25;4.90;99.90
48686;DHT22;34485;51.536;3.816;2022-12-07T18:21:50;4.80;99.90
48686;DHT22;34485;51.536;3.816;2022-12-07T18:24:17;4.70;99.90
48686;DHT22;34485;51.536;3.816;2022-12-07T18:26:43;4.60;99.90
48686;DHT22;34485;51.536;3.816;2022-12-07T18:29:13;4.60;99.90
48686;DHT22;34485;51.536;3.816;2022-12-07T18:31:40;4.60;99.90
48686;DHT22;34485;51.536;3.816;2022-12-07T18:34:11;4.70;99.90
48686;DHT22;34485;51.536;3.816;2022-12-07T18:36:39;4.70;99.90
48686;DHT22;34485;51.536;3.816;2022-12-07T18:39:07;4.80;99.90
48686;DHT22;34485;51.536;3.816;2022-12-07T18:41:32;4.90;99.90
48686;DHT22;34485;51.536;3.816;2022-12-07T18:43:58;4.90;99.90
48686;DHT22;34485;51.536;3.816;2022-12-07T18:46:24;4.90;99.90
48686;DHT22;34485;51.536;3.816;2022-12-07T18:48:49;4.90;99.90
48686;DHT22;34485;51.536;3.816;2022-12-07T18:51:17;4.90;99.90
48686;DHT22;34485;51.536;3.816;2022-12-07T18:53:44;4.90;99.90
48686;DHT22;34485;51.536;3.816;2022-12-07T18:56:19;4.90;99.90
48686;DHT22;34485;51.536;3.816;2022-12-07T18:58:53;5.10;99.90
48686;DHT22;34485;51.536;3.816;2022-12-07T19:01:38;5.10;99.90
48686;DHT22;34485;51.536;3.816;2022-12-07T19:04:04;5.10;99.90
48686;DHT22;34485;51.536;3.816;2022-12-07T19:06:30;5.10;99.90
48686;DHT22;34485;51.536;3.816;2022-12-07T19:08:56;5.10;99.90
48686;DHT22;34485;51.536;3.816;2022-12-07T19:11:24;5.10;99.90
48686;DHT22;34485;51.536;3.816;2022-12-07T19:14:09;5.20;99.90
48686;DHT22;34485;51.536;3.816;2022-12-07T19:16:35;5.20;99.90
48686;DHT22;34485;51.536;3.816;2022-12-07T19:19:01;5.20;99.90
48686;DHT22;34485;51.536;3.816;2022-12-07T19:21:26;5.20;99.90
48686;DHT22;34485;51.536;3.816;2022-12-07T19:23:52;5.20;99.90
48686;DHT22;34485;51.536;3.816;2022-12-07T19:28:45;5.20;99.90
48686;DHT22;34485;51.536;3.816;2022-12-07T19:31:11;5.10;99.90
48686;DHT22;34485;51.536;3.816;2022-12-07T19:33:38;5.20;99.90
48686;DHT22;34485;51.536;3.816;2022-12-07T19:36:04;5.20;99.90
48686;DHT22;34485;51.536;3.816;2022-12-07T19:38:31;5.20;99.90